Terminal Aerodrome Forecast
Issued by NWS

Home | Current Version | Previous Version | Text Only | Print | Product List | Glossary On
Versions: 1 2 3 4 5 6 7 8 9 10 11 12 13 14 15 16 17 18 19 20 21 22
000
FTUS45 KGJT 212344 AAC
TAFEGE
TAF AMD
KEGE 212344Z 2200/2224 25012G20KT P6SM SCT050 BKN120
     FM220500 24012G25KT P6SM BKN040 WS020/23040KT
     FM221500 23010KT P6SM VCSH BKN040
     FM221800 25010KT P6SM BKN040
      AMD LTD TO CLD VIS AND WIND 2205/2213=

USA.gov is the U.S. government's official web portal to all federal, state and local government web resources and services.